ENG CAT
Escuela de Pilotos
Teléfono 972234126 972 23 41 26
 

Información meteorológica aeronáutica

 

En este apartado aparece la información meteorológica aeronáutica que es utilizada en las prácticas de los alumnos de la Escuela de Pilotos de nuestro centro durante su formación, por lo que puede no ser actual y se debería utilizar por su propia cuenta y riesgo. AERBRAVA no se hace responsable de su uso.

 

TIEMPO ACTUAL

Satélite Meteorológico

sat24.com

Servei Meteorològic de Catalunya

 

Data at: 1239 UTC 09 Feb 2023
LEGE 091230Z 36004KT 330V050 9999 FEW030 BKN050 08/03 Q1033
LEGE 091200Z 02008KT 9999 FEW030 BKN045 08/04 Q1033
LEGE 091130Z 03008KT 9999 SCT050 BKN070 09/03 Q1033
LEGE 091100Z 02007KT 350V080 9999 SCT040 BKN080 10/04 Q1033
LEGE 091030Z 02005KT 350V050 9999 BKN050 08/04 Q1033
LEGE 091000Z 36003KT 300V040 9999 BKN050 08/04 Q1033
LEGE 090930Z 36003KT 330V030 9999 FEW030 BKN047 07/04 Q1033
LEGE 090900Z VRB02KT 9999 SCT035 BKN055 05/03 Q1033

TAF LEGE 091100Z 0912/1012 05007KT 9999 SCT035 TX11/0913Z TNM02/1006Z
  BECMG 0916/0918 VRB04KT

Aviation Weather

 
Aerbrava en el facebook Aerbrava en el twitter Aerbrava instagram

¡html Vàlid! ¡CSS Vàlid!